sensor_id;sensor_type;location;lat;lon;timestamp;pressure;altitude;pressure_sealevel;temperature;humidity
27958;BME280;15295;42.658;23.374;2022-10-31T00:00:41;95052.66;;;20.62;34.58
27958;BME280;15295;42.658;23.374;2022-10-31T00:03:16;95062.09;;;20.64;35.18
27958;BME280;15295;42.658;23.374;2022-10-31T00:05:43;95062.09;;;20.64;34.96
27958;BME280;15295;42.658;23.374;2022-10-31T00:08:08;95062.72;;;20.68;35.13
27958;BME280;15295;42.658;23.374;2022-10-31T00:10:38;95065.19;;;20.66;35.38
27958;BME280;15295;42.658;23.374;2022-10-31T00:13:06;95045.47;;;20.52;35.46
27958;BME280;15295;42.658;23.374;2022-10-31T00:15:33;95058.84;;;20.66;35.30
27958;BME280;15295;42.658;23.374;2022-10-31T00:17:59;95052.91;;;20.55;35.43
27958;BME280;15295;42.658;23.374;2022-10-31T00:20:25;95062.22;;;20.61;35.72
27958;BME280;15295;42.658;23.374;2022-10-31T00:22:59;95057.03;;;20.50;35.82
27958;BME280;15295;42.658;23.374;2022-10-31T00:25:25;95064.03;;;20.55;35.78
27958;BME280;15295;42.658;23.374;2022-10-31T00:27:51;95059.34;;;20.52;36.01
27958;BME280;15295;42.658;23.374;2022-10-31T00:30:16;95065.09;;;20.57;36.08
27958;BME280;15295;42.658;23.374;2022-10-31T00:32:42;95063.25;;;20.54;35.90
27958;BME280;15295;42.658;23.374;2022-10-31T00:35:07;95063.09;;;20.58;35.99
27958;BME280;15295;42.658;23.374;2022-10-31T00:37:32;95065.56;;;20.56;35.93
27958;BME280;15295;42.658;23.374;2022-10-31T00:39:58;95045.78;;;20.54;35.90
27958;BME280;15295;42.658;23.374;2022-10-31T00:42:23;95061.09;;;20.58;35.84
27958;BME280;15295;42.658;23.374;2022-10-31T00:44:50;95057.22;;;20.56;35.99
27958;BME280;15295;42.658;23.374;2022-10-31T00:47:17;95057.69;;;20.54;35.96
27958;BME280;15295;42.658;23.374;2022-10-31T00:49:42;95055.69;;;20.55;36.11
27958;BME280;15295;42.658;23.374;2022-10-31T00:52:14;95052.31;;;20.60;36.23
27958;BME280;15295;42.658;23.374;2022-10-31T00:54:39;95059.44;;;20.61;35.86
27958;BME280;15295;42.658;23.374;2022-10-31T00:57:05;95065.06;;;20.70;36.03
27958;BME280;15295;42.658;23.374;2022-10-31T00:59:30;95055.75;;;20.64;35.94
27958;BME280;15295;42.658;23.374;2022-10-31T01:01:56;95059.50;;;20.70;36.16
27958;BME280;15295;42.658;23.374;2022-10-31T01:04:21;95048.34;;;20.61;35.94
27958;BME280;15295;42.658;23.374;2022-10-31T01:06:47;95060.28;;;20.70;35.74
27958;BME280;15295;42.658;23.374;2022-10-31T01:09:12;95052.88;;;20.67;35.89
27958;BME280;15295;42.658;23.374;2022-10-31T01:11:37;95066.03;;;20.76;35.83
27958;BME280;15295;42.658;23.374;2022-10-31T01:14:05;95062.63;;;20.72;35.99
27958;BME280;15295;42.658;23.374;2022-10-31T01:16:30;95065.72;;;20.74;35.91
27958;BME280;15295;42.658;23.374;2022-10-31T01:18:56;95076.84;;;20.74;36.09
27958;BME280;15295;42.658;23.374;2022-10-31T01:21:23;95066.94;;;20.73;36.03
27958;BME280;15295;42.658;23.374;2022-10-31T01:23:56;95069.19;;;20.65;36.11
27958;BME280;15295;42.658;23.374;2022-10-31T01:26:24;95070.59;;;20.70;35.76
27958;BME280;15295;42.658;23.374;2022-10-31T01:29:00;95071.34;;;20.61;35.97
27958;BME280;15295;42.658;23.374;2022-10-31T01:31:28;95074.22;;;20.58;36.24
27958;BME280;15295;42.658;23.374;2022-10-31T01:33:54;95072.69;;;20.57;36.27
27958;BME280;15295;42.658;23.374;2022-10-31T01:36:22;95091.28;;;20.69;36.44
27958;BME280;15295;42.658;23.374;2022-10-31T01:39:15;95075.72;;;20.71;36.74
27958;BME280;15295;42.658;23.374;2022-10-31T01:41:43;95065.56;;;20.56;36.73
27958;BME280;15295;42.658;23.374;2022-10-31T01:47:06;95084.44;;;20.61;36.92
27958;BME280;15295;42.658;23.374;2022-10-31T01:52:09;95091.41;;;20.65;36.58
27958;BME280;15295;42.658;23.374;2022-10-31T01:54:44;95078.47;;;20.50;36.15
27958;BME280;15295;42.658;23.374;2022-10-31T01:57:13;95084.47;;;20.48;36.53
27958;BME280;15295;42.658;23.374;2022-10-31T01:59:42;95063.56;;;20.22;36.54
27958;BME280;15295;42.658;23.374;2022-10-31T02:02:10;95072.06;;;20.15;36.97
27958;BME280;15295;42.658;23.374;2022-10-31T02:04:38;95072.53;;;20.14;36.93
27958;BME280;15295;42.658;23.374;2022-10-31T02:07:39;95080.09;;;20.00;37.23
27958;BME280;15295;42.658;23.374;2022-10-31T02:10:18;95060.56;;;19.91;37.92
27958;BME280;15295;42.658;23.374;2022-10-31T02:12:44;95082.53;;;20.11;37.37
27958;BME280;15295;42.658;23.374;2022-10-31T02:15:18;95063.25;;;19.95;37.41
27958;BME280;15295;42.658;23.374;2022-10-31T02:17:43;95078.00;;;19.92;37.55
27958;BME280;15295;42.658;23.374;2022-10-31T02:20:19;95075.00;;;19.86;38.04
27958;BME280;15295;42.658;23.374;2022-10-31T02:23:25;95078.47;;;19.78;37.91
27958;BME280;15295;42.658;23.374;2022-10-31T02:29:13;95086.88;;;19.62;38.20
27958;BME280;15295;42.658;23.374;2022-10-31T02:36:43;95094.75;;;19.63;38.52
27958;BME280;15295;42.658;23.374;2022-10-31T02:47:30;95098.63;;;19.66;38.09
27958;BME280;15295;42.658;23.374;2022-10-31T02:49:59;95107.41;;;19.64;38.15
27958;BME280;15295;42.658;23.374;2022-10-31T02:52:30;95100.72;;;19.62;38.18
27958;BME280;15295;42.658;23.374;2022-10-31T02:58:10;95103.94;;;19.48;38.70
27958;BME280;15295;42.658;23.374;2022-10-31T03:00:54;95101.72;;;19.43;38.63
27958;BME280;15295;42.658;23.374;2022-10-31T03:03:33;95110.03;;;19.43;38.82
27958;BME280;15295;42.658;23.374;2022-10-31T03:06:32;95114.44;;;19.40;38.88
27958;BME280;15295;42.658;23.374;2022-10-31T03:09:18;95111.09;;;19.33;39.14
27958;BME280;15295;42.658;23.374;2022-10-31T03:12:21;95103.56;;;19.33;39.11
27958;BME280;15295;42.658;23.374;2022-10-31T03:15:14;95100.78;;;19.33;39.47
27958;BME280;15295;42.658;23.374;2022-10-31T03:20:24;95088.47;;;19.21;39.21
27958;BME280;15295;42.658;23.374;2022-10-31T03:22:52;95108.06;;;19.27;39.38
27958;BME280;15295;42.658;23.374;2022-10-31T03:25:32;95106.19;;;19.24;39.24
27958;BME280;15295;42.658;23.374;2022-10-31T03:28:07;95091.44;;;19.14;39.41
27958;BME280;15295;42.658;23.374;2022-10-31T03:30:42;95105.53;;;19.20;39.73
27958;BME280;15295;42.658;23.374;2022-10-31T03:33:13;95108.84;;;19.15;40.15
27958;BME280;15295;42.658;23.374;2022-10-31T03:35:52;95117.16;;;19.15;40.18
27958;BME280;15295;42.658;23.374;2022-10-31T03:38:20;95114.19;;;19.22;40.11
27958;BME280;15295;42.658;23.374;2022-10-31T03:40:48;95111.19;;;19.29;39.90
27958;BME280;15295;42.658;23.374;2022-10-31T03:43:21;95114.66;;;19.33;39.34
27958;BME280;15295;42.658;23.374;2022-10-31T03:45:54;95124.41;;;19.38;39.51
27958;BME280;15295;42.658;23.374;2022-10-31T03:48:20;95125.03;;;19.29;39.62
27958;BME280;15295;42.658;23.374;2022-10-31T03:53:24;95133.91;;;19.24;39.71
27958;BME280;15295;42.658;23.374;2022-10-31T03:57:07;95133.00;;;19.27;39.52
27958;BME280;15295;42.658;23.374;2022-10-31T03:59:13;95130.47;;;19.20;39.78
27958;BME280;15295;42.658;23.374;2022-10-31T04:01:46;95135.19;;;19.07;40.20
27958;BME280;15295;42.658;23.374;2022-10-31T04:04:33;95144.69;;;19.06;40.41
27958;BME280;15295;42.658;23.374;2022-10-31T04:07:00;95142.81;;;19.03;39.94
27958;BME280;15295;42.658;23.374;2022-10-31T04:09:27;95142.56;;;18.97;40.25
27958;BME280;15295;42.658;23.374;2022-10-31T04:11:56;95145.78;;;18.96;40.37
27958;BME280;15295;42.658;23.374;2022-10-31T04:14:25;95148.22;;;18.94;40.46
27958;BME280;15295;42.658;23.374;2022-10-31T04:17:16;95151.09;;;18.90;40.71
27958;BME280;15295;42.658;23.374;2022-10-31T04:19:44;95135.09;;;18.82;40.84
27958;BME280;15295;42.658;23.374;2022-10-31T04:22:09;95150.50;;;18.83;41.08
27958;BME280;15295;42.658;23.374;2022-10-31T04:24:37;95150.38;;;18.86;41.21
27958;BME280;15295;42.658;23.374;2022-10-31T04:27:04;95139.94;;;18.78;41.18
27958;BME280;15295;42.658;23.374;2022-10-31T04:29:29;95154.38;;;18.85;41.28
27958;BME280;15295;42.658;23.374;2022-10-31T04:31:54;95147.03;;;18.79;41.33
27958;BME280;15295;42.658;23.374;2022-10-31T04:34:26;95151.28;;;18.83;41.32
27958;BME280;15295;42.658;23.374;2022-10-31T04:36:57;95146.88;;;18.70;41.26
27958;BME280;15295;42.658;23.374;2022-10-31T04:39:23;95152.69;;;18.75;41.70
27958;BME280;15295;42.658;23.374;2022-10-31T04:41:48;95149.56;;;18.73;41.49
27958;BME280;15295;42.658;23.374;2022-10-31T04:44:14;95154.31;;;18.73;41.63
27958;BME280;15295;42.658;23.374;2022-10-31T04:46:39;95159.84;;;18.73;41.63
27958;BME280;15295;42.658;23.374;2022-10-31T04:49:04;95148.78;;;18.73;41.87
27958;BME280;15295;42.658;23.374;2022-10-31T04:51:30;95165.13;;;18.83;41.55
27958;BME280;15295;42.658;23.374;2022-10-31T04:53:55;95132.47;;;18.62;41.88
27958;BME280;15295;42.658;23.374;2022-10-31T04:56:29;95170.38;;;18.94;41.90
27958;BME280;15295;42.658;23.374;2022-10-31T04:59:07;95162.22;;;19.03;41.88
27958;BME280;15295;42.658;23.374;2022-10-31T05:01:33;95172.09;;;19.16;41.65
27958;BME280;15295;42.658;23.374;2022-10-31T05:03:58;95161.78;;;19.04;41.22
27958;BME280;15295;42.658;23.374;2022-10-31T05:06:57;95170.75;;;19.08;41.47
27958;BME280;15295;42.658;23.374;2022-10-31T05:09:22;95156.88;;;18.96;41.51
27958;BME280;15295;42.658;23.374;2022-10-31T05:11:48;95175.38;;;18.99;41.59
27958;BME280;15295;42.658;23.374;2022-10-31T05:14:13;95167.50;;;18.97;41.95
27958;BME280;15295;42.658;23.374;2022-10-31T05:16:41;95161.03;;;18.88;41.78
27958;BME280;15295;42.658;23.374;2022-10-31T05:19:06;95156.13;;;18.79;41.67
27958;BME280;15295;42.658;23.374;2022-10-31T05:21:32;95190.78;;;19.00;41.55
27958;BME280;15295;42.658;23.374;2022-10-31T05:23:57;95183.59;;;19.02;42.14
27958;BME280;15295;42.658;23.374;2022-10-31T05:26:23;95188.06;;;19.12;42.16
27958;BME280;15295;42.658;23.374;2022-10-31T05:28:53;95195.59;;;19.12;41.66
27958;BME280;15295;42.658;23.374;2022-10-31T05:31:21;95193.25;;;19.10;41.27
27958;BME280;15295;42.658;23.374;2022-10-31T05:33:46;95184.94;;;19.10;41.39
27958;BME280;15295;42.658;23.374;2022-10-31T05:36:12;95196.63;;;19.18;41.42
27958;BME280;15295;42.658;23.374;2022-10-31T05:38:37;95195.94;;;19.14;40.97
27958;BME280;15295;42.658;23.374;2022-10-31T05:41:03;95191.28;;;19.11;41.23
27958;BME280;15295;42.658;23.374;2022-10-31T05:43:28;95205.13;;;19.11;41.33
27958;BME280;15295;42.658;23.374;2022-10-31T05:46:01;95198.91;;;19.07;41.83
27958;BME280;15295;42.658;23.374;2022-10-31T05:48:32;95203.31;;;19.04;41.81
27958;BME280;15295;42.658;23.374;2022-10-31T05:50:57;95209.66;;;19.05;41.82
27958;BME280;15295;42.658;23.374;2022-10-31T05:53:23;95202.88;;;19.06;42.15
27958;BME280;15295;42.658;23.374;2022-10-31T05:55:48;95207.56;;;19.09;42.05
27958;BME280;15295;42.658;23.374;2022-10-31T05:58:13;95208.69;;;19.11;41.82
27958;BME280;15295;42.658;23.374;2022-10-31T06:00:39;95208.75;;;19.08;41.88
27958;BME280;15295;42.658;23.374;2022-10-31T06:03:06;95214.22;;;19.11;41.88
27958;BME280;15295;42.658;23.374;2022-10-31T06:05:32;95224.41;;;19.14;41.85
27958;BME280;15295;42.658;23.374;2022-10-31T06:08:00;95232.38;;;19.12;42.05
27958;BME280;15295;42.658;23.374;2022-10-31T06:10:27;95221.31;;;19.12;41.82
27958;BME280;15295;42.658;23.374;2022-10-31T06:12:52;95227.75;;;19.09;41.74
27958;BME280;15295;42.658;23.374;2022-10-31T06:15:24;95230.28;;;19.16;42.11
27958;BME280;15295;42.658;23.374;2022-10-31T06:18:00;95242.69;;;19.12;41.79
27958;BME280;15295;42.658;23.374;2022-10-31T06:20:26;95235.59;;;19.11;41.76
27958;BME280;15295;42.658;23.374;2022-10-31T06:22:52;95221.75;;;19.11;41.84
27958;BME280;15295;42.658;23.374;2022-10-31T06:25:17;95233.84;;;19.17;42.06
27958;BME280;15295;42.658;23.374;2022-10-31T06:27:44;95250.19;;;19.27;42.08
27958;BME280;15295;42.658;23.374;2022-10-31T06:30:09;95248.53;;;19.30;41.63
27958;BME280;15295;42.658;23.374;2022-10-31T06:32:35;95259.38;;;19.41;41.97
27958;BME280;15295;42.658;23.374;2022-10-31T06:35:00;95267.16;;;19.46;42.16
27958;BME280;15295;42.658;23.374;2022-10-31T06:37:27;95263.97;;;19.60;42.66
27958;BME280;15295;42.658;23.374;2022-10-31T06:39:52;95252.44;;;19.61;41.92
27958;BME280;15295;42.658;23.374;2022-10-31T06:42:17;95267.91;;;19.75;41.43
27958;BME280;15295;42.658;23.374;2022-10-31T06:44:43;95267.38;;;19.80;40.89
27958;BME280;15295;42.658;23.374;2022-10-31T06:47:09;95260.16;;;19.82;40.94
27958;BME280;15295;42.658;23.374;2022-10-31T06:49:34;95263.53;;;19.90;41.09
27958;BME280;15295;42.658;23.374;2022-10-31T06:51:59;95259.28;;;19.85;40.79
27958;BME280;15295;42.658;23.374;2022-10-31T06:54:26;95271.72;;;19.93;40.40
27958;BME280;15295;42.658;23.374;2022-10-31T06:56:52;95264.19;;;19.94;40.69
27958;BME280;15295;42.658;23.374;2022-10-31T06:59:23;95268.63;;;20.04;40.55
27958;BME280;15295;42.658;23.374;2022-10-31T07:01:49;95258.97;;;19.96;40.71
27958;BME280;15295;42.658;23.374;2022-10-31T07:04:35;95262.00;;;20.14;41.14
27958;BME280;15295;42.658;23.374;2022-10-31T07:07:00;95264.59;;;20.21;41.25
27958;BME280;15295;42.658;23.374;2022-10-31T07:09:27;95262.19;;;20.36;41.08
27958;BME280;15295;42.658;23.374;2022-10-31T07:11:56;95272.28;;;20.55;40.55
27958;BME280;15295;42.658;23.374;2022-10-31T07:14:42;95259.34;;;20.86;40.69
27958;BME280;15295;42.658;23.374;2022-10-31T07:17:07;95257.69;;;21.35;39.55
27958;BME280;15295;42.658;23.374;2022-10-31T07:19:46;95257.41;;;21.77;38.54
27958;BME280;15295;42.658;23.374;2022-10-31T07:22:11;95269.84;;;22.06;37.58
27958;BME280;15295;42.658;23.374;2022-10-31T07:24:36;95255.22;;;22.15;37.74
27958;BME280;15295;42.658;23.374;2022-10-31T07:27:02;95256.28;;;22.48;37.20
27958;BME280;15295;42.658;23.374;2022-10-31T07:29:33;95232.13;;;22.76;36.67
27958;BME280;15295;42.658;23.374;2022-10-31T07:31:58;95234.53;;;23.23;35.77
27958;BME280;15295;42.658;23.374;2022-10-31T07:34:23;95232.25;;;23.66;35.00
27958;BME280;15295;42.658;23.374;2022-10-31T07:36:50;95218.44;;;23.90;34.49
27958;BME280;15295;42.658;23.374;2022-10-31T07:39:16;95241.97;;;24.16;33.43
27958;BME280;15295;42.658;23.374;2022-10-31T07:41:41;95256.19;;;24.36;33.74
27958;BME280;15295;42.658;23.374;2022-10-31T07:44:06;95256.16;;;24.87;33.36
27958;BME280;15295;42.658;23.374;2022-10-31T07:46:32;95257.31;;;25.28;32.09
27958;BME280;15295;42.658;23.374;2022-10-31T07:49:01;95256.16;;;25.44;31.60
27958;BME280;15295;42.658;23.374;2022-10-31T07:51:26;95240.22;;;25.02;32.05
27958;BME280;15295;42.658;23.374;2022-10-31T07:56:21;95221.56;;;25.08;32.09
27958;BME280;15295;42.658;23.374;2022-10-31T07:59:04;95256.44;;;25.69;31.43
27958;BME280;15295;42.658;23.374;2022-10-31T08:01:35;95262.34;;;26.00;30.74
27958;BME280;15295;42.658;23.374;2022-10-31T08:04:06;95251.09;;;26.10;30.69
27958;BME280;15295;42.658;23.374;2022-10-31T08:06:32;95232.66;;;26.18;30.05
27958;BME280;15295;42.658;23.374;2022-10-31T08:09:03;95258.16;;;26.49;30.06
27958;BME280;15295;42.658;23.374;2022-10-31T08:11:29;95263.69;;;26.72;30.16
27958;BME280;15295;42.658;23.374;2022-10-31T08:13:54;95257.59;;;27.09;29.30
27958;BME280;15295;42.658;23.374;2022-10-31T08:18:57;95264.91;;;27.56;28.48
27958;BME280;15295;42.658;23.374;2022-10-31T08:21:27;95262.44;;;27.43;28.67
27958;BME280;15295;42.658;23.374;2022-10-31T08:23:58;95271.78;;;27.75;28.74
27958;BME280;15295;42.658;23.374;2022-10-31T08:26:27;95268.88;;;28.09;27.95
27958;BME280;15295;42.658;23.374;2022-10-31T08:28:53;95270.97;;;28.14;27.25
27958;BME280;15295;42.658;23.374;2022-10-31T08:31:20;95250.75;;;28.10;27.56
27958;BME280;15295;42.658;23.374;2022-10-31T08:33:51;95240.88;;;28.46;27.09
27958;BME280;15295;42.658;23.374;2022-10-31T08:36:20;95266.22;;;28.77;26.70
27958;BME280;15295;42.658;23.374;2022-10-31T08:38:56;95248.19;;;28.95;26.60
27958;BME280;15295;42.658;23.374;2022-10-31T08:41:44;95238.53;;;29.07;26.24
27958;BME280;15295;42.658;23.374;2022-10-31T08:44:13;95258.94;;;29.33;26.41
27958;BME280;15295;42.658;23.374;2022-10-31T08:49:09;95261.44;;;29.68;25.77
27958;BME280;15295;42.658;23.374;2022-10-31T08:51:34;95249.25;;;29.93;25.70
27958;BME280;15295;42.658;23.374;2022-10-31T08:56:29;95248.38;;;30.40;24.84
27958;BME280;15295;42.658;23.374;2022-10-31T08:58:54;95256.31;;;30.59;24.93
27958;BME280;15295;42.658;23.374;2022-10-31T09:01:26;95253.25;;;30.79;24.50
27958;BME280;15295;42.658;23.374;2022-10-31T09:03:51;95262.50;;;31.07;24.42
27958;BME280;15295;42.658;23.374;2022-10-31T09:06:43;95257.88;;;31.15;24.09
27958;BME280;15295;42.658;23.374;2022-10-31T09:09:09;95255.25;;;31.39;23.88
27958;BME280;15295;42.658;23.374;2022-10-31T09:11:34;95222.31;;;31.64;23.54
27958;BME280;15295;42.658;23.374;2022-10-31T09:13:59;95246.59;;;32.00;22.96
27958;BME280;15295;42.658;23.374;2022-10-31T09:16:30;95199.06;;;31.99;22.89
27958;BME280;15295;42.658;23.374;2022-10-31T09:18:56;95241.25;;;32.32;22.79
27958;BME280;15295;42.658;23.374;2022-10-31T09:24:34;95257.38;;;32.83;22.10
27958;BME280;15295;42.658;23.374;2022-10-31T09:27:00;95257.34;;;32.89;22.32
27958;BME280;15295;42.658;23.374;2022-10-31T09:32:01;95245.78;;;33.40;21.55
27958;BME280;15295;42.658;23.374;2022-10-31T09:34:26;95239.28;;;33.21;21.90
27958;BME280;15295;42.658;23.374;2022-10-31T09:36:52;95240.03;;;33.52;21.44
27958;BME280;15295;42.658;23.374;2022-10-31T09:39:18;95248.38;;;33.68;21.42
27958;BME280;15295;42.658;23.374;2022-10-31T09:50:21;95249.88;;;34.49;20.61
27958;BME280;15295;42.658;23.374;2022-10-31T09:53:09;95246.06;;;34.47;20.42
27958;BME280;15295;42.658;23.374;2022-10-31T09:55:45;95242.44;;;34.46;20.56
27958;BME280;15295;42.658;23.374;2022-10-31T09:58:19;95246.25;;;34.67;20.02
27958;BME280;15295;42.658;23.374;2022-10-31T10:00:54;95236.03;;;34.77;20.10
27958;BME280;15295;42.658;23.374;2022-10-31T10:03:30;95241.00;;;34.90;19.99
27958;BME280;15295;42.658;23.374;2022-10-31T10:06:32;95235.50;;;35.11;19.96
27958;BME280;15295;42.658;23.374;2022-10-31T10:08:55;95235.41;;;35.29;19.90
27958;BME280;15295;42.658;23.374;2022-10-31T10:12:02;95232.25;;;35.46;19.59
27958;BME280;15295;42.658;23.374;2022-10-31T10:24:16;95218.13;;;36.19;18.61
27958;BME280;15295;42.658;23.374;2022-10-31T10:26:50;95204.53;;;36.25;18.09
27958;BME280;15295;42.658;23.374;2022-10-31T10:29:40;95207.94;;;36.23;18.19
27958;BME280;15295;42.658;23.374;2022-10-31T10:32:27;95192.69;;;35.87;18.43
27958;BME280;15295;42.658;23.374;2022-10-31T10:35:13;95184.78;;;36.06;18.65
27958;BME280;15295;42.658;23.374;2022-10-31T10:37:42;95203.66;;;36.30;18.54
27958;BME280;15295;42.658;23.374;2022-10-31T10:40:16;95184.16;;;36.34;18.15
27958;BME280;15295;42.658;23.374;2022-10-31T10:42:46;95190.72;;;36.42;18.09
27958;BME280;15295;42.658;23.374;2022-10-31T10:45:47;95173.09;;;36.44;18.25
27958;BME280;15295;42.658;23.374;2022-10-31T10:54:13;95177.56;;;37.14;17.42
27958;BME280;15295;42.658;23.374;2022-10-31T10:59:37;95168.59;;;37.10;17.34
27958;BME280;15295;42.658;23.374;2022-10-31T11:02:27;95182.97;;;37.25;17.26
27958;BME280;15295;42.658;23.374;2022-10-31T11:04:58;95165.13;;;37.32;17.23
27958;BME280;15295;42.658;23.374;2022-10-31T11:07:25;95182.69;;;37.36;17.37
27958;BME280;15295;42.658;23.374;2022-10-31T11:09:51;95171.13;;;37.42;16.96
27958;BME280;15295;42.658;23.374;2022-10-31T11:12:31;95170.03;;;37.24;16.87
27958;BME280;15295;42.658;23.374;2022-10-31T11:15:31;95172.97;;;37.11;17.13
27958;BME280;15295;42.658;23.374;2022-10-31T11:20:59;95163.47;;;36.67;17.41
27958;BME280;15295;42.658;23.374;2022-10-31T11:23:38;95149.63;;;36.51;17.48
27958;BME280;15295;42.658;23.374;2022-10-31T11:26:23;95141.66;;;36.49;17.68
27958;BME280;15295;42.658;23.374;2022-10-31T11:29:00;95132.22;;;36.54;17.65
27958;BME280;15295;42.658;23.374;2022-10-31T11:31:51;95157.69;;;37.01;17.47
27958;BME280;15295;42.658;23.374;2022-10-31T11:35:16;95135.78;;;37.17;17.08
27958;BME280;15295;42.658;23.374;2022-10-31T11:37:45;95123.72;;;37.31;17.07
27958;BME280;15295;42.658;23.374;2022-10-31T11:40:20;95134.91;;;37.57;16.66
27958;BME280;15295;42.658;23.374;2022-10-31T11:43:27;95136.47;;;37.66;16.53
27958;BME280;15295;42.658;23.374;2022-10-31T11:48:55;95130.59;;;37.71;16.68
27958;BME280;15295;42.658;23.374;2022-10-31T11:51:37;95131.09;;;37.55;16.59
27958;BME280;15295;42.658;23.374;2022-10-31T11:54:05;95091.00;;;37.32;16.42
27958;BME280;15295;42.658;23.374;2022-10-31T11:56:41;95106.59;;;37.31;16.85
27958;BME280;15295;42.658;23.374;2022-10-31T11:59:39;95125.53;;;37.49;16.71
27958;BME280;15295;42.658;23.374;2022-10-31T12:02:36;95109.88;;;37.35;16.88
27958;BME280;15295;42.658;23.374;2022-10-31T12:05:16;95119.84;;;37.49;16.75
27958;BME280;15295;42.658;23.374;2022-10-31T12:07:43;95104.56;;;37.11;17.01
27958;BME280;15295;42.658;23.374;2022-10-31T12:10:13;95095.50;;;37.20;17.05
27958;BME280;15295;42.658;23.374;2022-10-31T12:15:27;95115.59;;;37.35;16.82
27958;BME280;15295;42.658;23.374;2022-10-31T12:18:03;95117.34;;;37.38;16.85
27958;BME280;15295;42.658;23.374;2022-10-31T12:23:52;95113.75;;;36.89;17.21
27958;BME280;15295;42.658;23.374;2022-10-31T12:35:58;95117.06;;;36.80;17.15
27958;BME280;15295;42.658;23.374;2022-10-31T12:38:47;95110.66;;;36.87;17.08
27958;BME280;15295;42.658;23.374;2022-10-31T12:41:44;95109.13;;;36.86;17.16
27958;BME280;15295;42.658;23.374;2022-10-31T12:47:07;95121.69;;;36.28;17.40
27958;BME280;15295;42.658;23.374;2022-10-31T12:53:21;95106.06;;;35.88;17.91
27958;BME280;15295;42.658;23.374;2022-10-31T12:59:07;95109.41;;;35.27;18.65
27958;BME280;15295;42.658;23.374;2022-10-31T13:01:47;95093.88;;;35.28;18.27
27958;BME280;15295;42.658;23.374;2022-10-31T13:08:22;95091.47;;;35.32;18.31
27958;BME280;15295;42.658;23.374;2022-10-31T13:13:57;95113.16;;;35.48;18.30
27958;BME280;15295;42.658;23.374;2022-10-31T13:16:29;95102.63;;;35.43;18.29
27958;BME280;15295;42.658;23.374;2022-10-31T13:19:08;95109.38;;;35.40;18.21
27958;BME280;15295;42.658;23.374;2022-10-31T13:22:24;95118.84;;;35.48;18.25
27958;BME280;15295;42.658;23.374;2022-10-31T13:27:53;95109.41;;;35.14;18.50
27958;BME280;15295;42.658;23.374;2022-10-31T13:30:22;95107.53;;;35.03;18.75
27958;BME280;15295;42.658;23.374;2022-10-31T13:33:14;95111.09;;;34.90;18.76
27958;BME280;15295;42.658;23.374;2022-10-31T13:38:51;95109.16;;;34.41;19.14
27958;BME280;15295;42.658;23.374;2022-10-31T13:41:53;95112.22;;;34.11;19.52
27958;BME280;15295;42.658;23.374;2022-10-31T13:44:24;95104.03;;;33.70;19.82
27958;BME280;15295;42.658;23.374;2022-10-31T13:46:52;95096.56;;;33.49;19.94
27958;BME280;15295;42.658;23.374;2022-10-31T13:54:40;95086.78;;;32.83;20.68
27958;BME280;15295;42.658;23.374;2022-10-31T13:57:43;95104.97;;;32.63;20.90
27958;BME280;15295;42.658;23.374;2022-10-31T14:02:50;95107.06;;;31.92;21.74
27958;BME280;15295;42.658;23.374;2022-10-31T14:05:53;95108.69;;;31.76;21.86
27958;BME280;15295;42.658;23.374;2022-10-31T14:08:36;95108.28;;;31.61;22.24
27958;BME280;15295;42.658;23.374;2022-10-31T14:11:07;95104.53;;;31.37;22.42
27958;BME280;15295;42.658;23.374;2022-10-31T14:13:37;95106.66;;;31.19;22.70
27958;BME280;15295;42.658;23.374;2022-10-31T14:16:23;95118.25;;;31.10;22.71
27958;BME280;15295;42.658;23.374;2022-10-31T14:23:54;95087.31;;;30.61;23.33
27958;BME280;15295;42.658;23.374;2022-10-31T14:28:55;95119.09;;;30.61;23.24
27958;BME280;15295;42.658;23.374;2022-10-31T14:33:49;95114.00;;;30.15;23.89
27958;BME280;15295;42.658;23.374;2022-10-31T14:39:15;95115.50;;;29.83;24.34
27958;BME280;15295;42.658;23.374;2022-10-31T14:42:12;95116.25;;;29.78;24.55
27958;BME280;15295;42.658;23.374;2022-10-31T14:45:09;95101.38;;;29.72;24.46
27958;BME280;15295;42.658;23.374;2022-10-31T14:47:54;95102.91;;;29.73;24.54
27958;BME280;15295;42.658;23.374;2022-10-31T14:50:53;95111.59;;;29.64;24.60
27958;BME280;15295;42.658;23.374;2022-10-31T14:53:35;95110.03;;;29.52;24.71
27958;BME280;15295;42.658;23.374;2022-10-31T14:56:03;95104.63;;;29.37;25.00
27958;BME280;15295;42.658;23.374;2022-10-31T14:58:38;95103.84;;;29.37;25.17
27958;BME280;15295;42.658;23.374;2022-10-31T15:01:05;95107.16;;;29.30;25.19
27958;BME280;15295;42.658;23.374;2022-10-31T15:03:39;95105.09;;;29.25;25.12
27958;BME280;15295;42.658;23.374;2022-10-31T15:06:26;95110.63;;;29.14;25.34
27958;BME280;15295;42.658;23.374;2022-10-31T15:08:55;95115.47;;;29.08;25.34
27958;BME280;15295;42.658;23.374;2022-10-31T15:11:22;95117.25;;;28.99;25.54
27958;BME280;15295;42.658;23.374;2022-10-31T15:13:49;95123.59;;;28.94;25.50
27958;BME280;15295;42.658;23.374;2022-10-31T15:16:23;95103.53;;;28.70;25.74
27958;BME280;15295;42.658;23.374;2022-10-31T15:19:00;95104.91;;;28.49;26.07
27958;BME280;15295;42.658;23.374;2022-10-31T15:21:31;95111.47;;;28.35;25.50
27958;BME280;15295;42.658;23.374;2022-10-31T15:24:00;95122.44;;;28.33;25.88
27958;BME280;15295;42.658;23.374;2022-10-31T15:26:35;95126.94;;;28.25;25.92
27958;BME280;15295;42.658;23.374;2022-10-31T15:29:05;95131.66;;;28.08;25.93
27958;BME280;15295;42.658;23.374;2022-10-31T15:31:36;95129.31;;;28.01;25.83
27958;BME280;15295;42.658;23.374;2022-10-31T15:34:37;95126.66;;;27.92;26.33
27958;BME280;15295;42.658;23.374;2022-10-31T15:37:01;95117.13;;;27.84;26.53